createdAt,value
2023-10-10T00:02:21.851Z,99.42
2023-10-10T00:04:50.807Z,99.77
2023-10-10T00:07:18.895Z,99.69
2023-10-10T00:09:46.753Z,99.97
2023-10-10T00:12:34.809Z,99.30
2023-10-10T00:15:12.545Z,98.21
2023-10-10T00:17:39.199Z,98.27
2023-10-10T00:20:22.837Z,98.53
2023-10-10T00:22:50.910Z,98.99
2023-10-10T00:25:19.754Z,99.98
2023-10-10T00:27:49.066Z,100.00
2023-10-10T00:30:17.084Z,100.00
2023-10-10T00:32:44.053Z,98.88
2023-10-10T00:35:10.775Z,98.90
2023-10-10T00:37:37.738Z,98.07
2023-10-10T00:40:15.353Z,98.02
2023-10-10T00:42:42.228Z,97.58
2023-10-10T00:45:11.251Z,96.81
2023-10-10T00:47:49.030Z,96.86
2023-10-10T00:50:18.723Z,96.68
2023-10-10T00:52:53.564Z,96.29
2023-10-10T00:55:25.741Z,96.37
2023-10-10T00:57:56.687Z,96.67
2023-10-10T01:00:26.191Z,95.59
2023-10-10T01:03:02.957Z,96.66
2023-10-10T01:05:43.570Z,96.44
2023-10-10T01:08:11.016Z,96.90
2023-10-10T01:10:45.103Z,97.00
2023-10-10T01:13:11.852Z,96.41
2023-10-10T01:15:38.794Z,96.29
2023-10-10T01:18:14.425Z,95.66
2023-10-10T01:20:51.288Z,95.95
2023-10-10T01:23:27.369Z,95.28
2023-10-10T01:25:54.136Z,93.85
2023-10-10T01:28:34.947Z,93.75
2023-10-10T01:31:05.996Z,93.71
2023-10-10T01:33:36.459Z,93.85
2023-10-10T01:36:04.312Z,94.29
2023-10-10T01:38:42.820Z,94.65
2023-10-10T01:41:30.126Z,94.22
2023-10-10T01:44:09.201Z,94.34
2023-10-10T01:46:36.281Z,95.26
2023-10-10T01:49:03.405Z,95.02
2023-10-10T01:51:34.274Z,95.89
2023-10-10T01:54:07.320Z,96.23
2023-10-10T01:56:34.003Z,96.42
2023-10-10T01:59:03.857Z,97.52
2023-10-10T02:01:32.986Z,98.14
2023-10-10T02:03:59.794Z,98.93
2023-10-10T02:06:28.901Z,98.13
2023-10-10T02:09:11.991Z,98.24
2023-10-10T02:11:51.435Z,97.49
2023-10-10T02:14:20.066Z,97.53
2023-10-10T02:16:49.482Z,97.66
2023-10-10T02:19:26.650Z,96.84
2023-10-10T02:22:04.635Z,97.69
2023-10-10T02:24:31.252Z,96.98
2023-10-10T02:26:57.960Z,96.75
2023-10-10T02:29:30.636Z,96.48
2023-10-10T02:32:20.327Z,95.52
2023-10-10T02:35:13.377Z,93.78
2023-10-10T02:37:45.951Z,93.59
2023-10-10T02:40:16.260Z,94.31
2023-10-10T02:42:51.203Z,93.50
2023-10-10T02:45:28.287Z,92.74
2023-10-10T02:47:55.940Z,93.19
2023-10-10T02:50:50.565Z,93.67
2023-10-10T02:53:20.566Z,94.28
2023-10-10T02:55:53.069Z,97.82
2023-10-10T02:58:22.878Z,95.09
2023-10-10T03:00:53.268Z,94.74
2023-10-10T03:03:20.255Z,98.41
2023-10-10T03:05:55.597Z,100.00
2023-10-10T03:08:33.457Z,100.00
2023-10-10T03:11:03.611Z,100.00
2023-10-10T03:13:37.849Z,98.37
2023-10-10T03:16:14.528Z,95.77
2023-10-10T03:18:55.236Z,95.21
2023-10-10T03:21:41.270Z,95.47
2023-10-10T03:24:21.964Z,95.06
2023-10-10T03:27:07.105Z,94.29
2023-10-10T03:29:50.962Z,94.70
2023-10-10T03:32:33.244Z,95.21
2023-10-10T03:35:15.045Z,94.87
2023-10-10T03:37:44.181Z,95.38
2023-10-10T03:40:49.703Z,95.54
2023-10-10T03:43:35.410Z,95.48
2023-10-10T03:46:22.483Z,96.76
2023-10-10T03:49:07.930Z,99.50
2023-10-10T03:51:53.209Z,99.84
2023-10-10T03:54:38.359Z,100.00
2023-10-10T03:57:23.756Z,100.00
2023-10-10T04:00:08.703Z,98.25
2023-10-10T04:02:57.557Z,97.85
2023-10-10T04:05:43.051Z,97.46
2023-10-10T04:08:32.780Z,97.35
2023-10-10T04:11:18.097Z,97.57
2023-10-10T04:14:03.289Z,96.93
2023-10-10T04:16:48.402Z,98.13
2023-10-10T04:19:33.695Z,97.95
2023-10-10T04:22:18.929Z,98.23
2023-10-10T04:25:04.125Z,97.73
2023-10-10T04:27:49.217Z,98.13
2023-10-10T04:30:34.201Z,97.66
2023-10-10T04:33:19.570Z,97.42
2023-10-10T04:36:04.885Z,97.86
2023-10-10T04:38:50.111Z,98.60
2023-10-10T04:41:35.359Z,98.33
2023-10-10T04:44:20.806Z,99.00
2023-10-10T04:47:06.623Z,98.91
2023-10-10T04:49:51.932Z,98.20
2023-10-10T04:52:37.204Z,98.53
2023-10-10T04:55:22.382Z,98.20
2023-10-10T04:58:07.283Z,99.21
2023-10-10T05:00:52.310Z,98.85
2023-10-10T05:03:37.324Z,99.75
2023-10-10T05:06:22.662Z,99.07
2023-10-10T05:09:08.167Z,98.09
2023-10-10T05:11:53.153Z,97.44
2023-10-10T05:14:48.977Z,96.95
2023-10-10T05:17:34.256Z,97.03
2023-10-10T05:20:19.668Z,97.08
2023-10-10T05:23:04.944Z,96.60
2023-10-10T05:25:32.760Z,97.25
2023-10-10T05:28:04.596Z,96.43
2023-10-10T05:31:00.792Z,97.33
2023-10-10T05:33:27.929Z,96.71
2023-10-10T05:35:59.908Z,96.83
2023-10-10T05:38:27.221Z,97.30
2023-10-10T05:40:55.010Z,96.83
2023-10-10T05:43:27.645Z,96.71
2023-10-10T05:45:55.424Z,96.99
2023-10-10T05:48:22.784Z,96.97
2023-10-10T05:50:49.444Z,96.49
2023-10-10T05:53:17.957Z,96.49
2023-10-10T05:55:45.142Z,96.66
2023-10-10T05:58:13.568Z,96.92
2023-10-10T06:00:43.016Z,97.06
2023-10-10T06:03:11.276Z,97.37
2023-10-10T06:05:43.433Z,96.81
2023-10-10T06:08:11.717Z,97.11
2023-10-10T06:10:38.563Z,97.26
2023-10-10T06:13:07.616Z,97.46
2023-10-10T06:15:35.952Z,97.12
2023-10-10T06:18:13.192Z,96.71
2023-10-10T06:23:19.459Z,96.90
2023-10-10T06:25:46.984Z,96.12
2023-10-10T06:28:27.398Z,97.23
2023-10-10T06:30:54.795Z,97.23
2023-10-10T06:33:29.039Z,97.53
2023-10-10T06:36:21.437Z,96.74
2023-10-10T06:39:00.592Z,97.02
2023-10-10T06:41:29.566Z,96.39
2023-10-10T06:43:58.523Z,97.10
2023-10-10T06:46:25.236Z,97.07
2023-10-10T06:48:52.164Z,97.18
2023-10-10T06:51:23.155Z,97.02
2023-10-10T06:53:55.542Z,97.24
2023-10-10T06:56:42.225Z,97.06
2023-10-10T06:59:21.766Z,97.19
2023-10-10T07:01:49.592Z,96.71
2023-10-10T07:04:17.317Z,96.55
2023-10-10T07:06:46.069Z,96.10
2023-10-10T07:09:16.083Z,95.69
2023-10-10T07:11:43.272Z,95.10
2023-10-10T07:14:11.395Z,94.41
2023-10-10T07:16:43.817Z,95.75
2023-10-10T07:19:42.804Z,94.34
2023-10-10T07:22:13.401Z,93.67
2023-10-10T07:24:41.903Z,94.58
2023-10-10T07:27:19.672Z,92.49
2023-10-10T07:29:46.252Z,92.15
2023-10-10T07:32:19.144Z,92.39
2023-10-10T07:34:52.874Z,91.92
2023-10-10T07:37:20.085Z,92.58
2023-10-10T07:39:55.661Z,91.55
2023-10-10T07:42:30.380Z,91.94
2023-10-10T07:44:58.156Z,92.19
2023-10-10T07:47:30.946Z,91.11
2023-10-10T07:50:00.796Z,91.20
2023-10-10T07:52:27.732Z,90.62
2023-10-10T07:54:54.797Z,89.72
2023-10-10T07:57:27.702Z,89.26
2023-10-10T07:59:58.140Z,90.35
2023-10-10T08:02:26.575Z,89.71
2023-10-10T08:04:54.748Z,89.78
2023-10-10T08:07:21.641Z,88.90
2023-10-10T08:09:49.436Z,89.02
2023-10-10T08:12:17.015Z,89.60
2023-10-10T08:14:44.105Z,90.72
2023-10-10T08:17:19.757Z,88.64
2023-10-10T08:19:52.461Z,88.60
2023-10-10T08:22:20.760Z,89.80
2023-10-10T08:24:47.271Z,88.84
2023-10-10T08:27:13.884Z,87.70
2023-10-10T08:29:41.305Z,87.33
2023-10-10T08:32:09.869Z,86.72
2023-10-10T08:34:43.742Z,86.40
2023-10-10T08:37:11.085Z,85.93
2023-10-10T08:39:40.198Z,85.55
2023-10-10T08:42:11.826Z,85.82
2023-10-10T08:44:40.594Z,85.62
2023-10-10T08:47:08.836Z,85.38
2023-10-10T08:49:36.509Z,85.25
2023-10-10T08:52:04.748Z,84.64
2023-10-10T08:54:33.468Z,84.35
2023-10-10T08:57:11.252Z,84.25
2023-10-10T08:59:43.334Z,83.53
2023-10-10T09:02:17.025Z,82.73
2023-10-10T09:04:44.634Z,81.23
2023-10-10T09:07:29.153Z,81.78
2023-10-10T09:10:05.576Z,80.38
2023-10-10T09:12:54.056Z,76.36
2023-10-10T09:15:21.151Z,74.80
2023-10-10T09:17:48.449Z,72.97
2023-10-10T09:20:33.398Z,72.42
2023-10-10T09:23:12.857Z,69.02
2023-10-10T09:25:43.583Z,68.30
2023-10-10T09:28:17.472Z,66.56
2023-10-10T09:30:51.956Z,66.11
2023-10-10T09:33:28.299Z,65.91
2023-10-10T09:36:09.238Z,65.01
2023-10-10T09:38:54.870Z,64.46
2023-10-10T09:41:30.264Z,63.20
2023-10-10T09:44:22.857Z,64.22
2023-10-10T09:47:04.940Z,64.37
2023-10-10T09:49:53.274Z,63.13
2023-10-10T09:52:41.597Z,63.94
2023-10-10T09:55:13.214Z,62.96
2023-10-10T09:57:59.233Z,62.36
2023-10-10T10:00:37.005Z,62.08
2023-10-10T10:03:30.319Z,60.19
2023-10-10T10:06:29.726Z,58.41
2023-10-10T10:09:10.510Z,59.24
2023-10-10T10:11:52.871Z,58.04
2023-10-10T10:14:36.597Z,58.03
2023-10-10T10:17:19.916Z,57.64
2023-10-10T10:19:48.834Z,56.66
2023-10-10T10:22:20.162Z,56.82
2023-10-10T10:24:46.695Z,56.88
2023-10-10T10:27:29.041Z,56.22
2023-10-10T10:30:29.370Z,57.35
2023-10-10T10:32:59.746Z,57.43
2023-10-10T10:35:47.403Z,57.56
2023-10-10T10:38:14.298Z,57.79
2023-10-10T10:40:42.087Z,57.50
2023-10-10T10:43:15.642Z,56.80
2023-10-10T10:46:08.427Z,56.86
2023-10-10T10:48:36.889Z,57.85
2023-10-10T10:51:26.441Z,56.28
2023-10-10T10:54:00.087Z,56.52
2023-10-10T10:56:31.345Z,57.44
2023-10-10T10:59:35.602Z,57.00
2023-10-10T11:02:06.556Z,56.86
2023-10-10T11:04:33.347Z,56.58
2023-10-10T11:07:05.522Z,56.82
2023-10-10T11:09:34.442Z,57.12
2023-10-10T11:12:09.179Z,56.74
2023-10-10T11:14:47.751Z,56.07
2023-10-10T11:17:19.338Z,56.77
2023-10-10T11:19:48.061Z,55.73
2023-10-10T11:22:37.920Z,56.11
2023-10-10T11:25:06.488Z,55.73
2023-10-10T11:27:45.341Z,55.03
2023-10-10T11:30:20.354Z,54.78
2023-10-10T11:32:50.122Z,53.45
2023-10-10T11:35:24.595Z,54.88
2023-10-10T11:38:00.559Z,54.17
2023-10-10T11:40:31.413Z,54.50
2023-10-10T11:43:05.182Z,53.79
2023-10-10T11:45:40.379Z,52.87
2023-10-10T11:48:14.488Z,53.43
2023-10-10T11:50:52.171Z,53.25
2023-10-10T11:53:26.662Z,52.65
2023-10-10T11:55:54.307Z,52.46
2023-10-10T11:58:21.726Z,51.98
2023-10-10T12:01:09.829Z,51.23
2023-10-10T12:03:40.282Z,51.76
2023-10-10T12:06:18.603Z,51.15
2023-10-10T12:08:49.189Z,52.01
2023-10-10T12:11:22.738Z,51.54
2023-10-10T12:13:54.346Z,52.83
2023-10-10T12:16:24.724Z,52.09
2023-10-10T12:18:53.814Z,51.96
2023-10-10T12:21:22.034Z,52.01
2023-10-10T12:24:00.690Z,51.89
2023-10-10T12:26:30.546Z,51.68
2023-10-10T12:28:57.662Z,51.25
2023-10-10T12:31:24.844Z,50.31
2023-10-10T12:33:54.729Z,50.60
2023-10-10T12:36:26.238Z,50.30
2023-10-10T12:38:53.248Z,50.10
2023-10-10T12:41:22.707Z,50.32
2023-10-10T12:43:52.804Z,49.43
2023-10-10T12:46:22.004Z,49.61
2023-10-10T12:48:52.215Z,50.56
2023-10-10T12:51:22.275Z,51.14
2023-10-10T12:53:49.063Z,50.22
2023-10-10T12:56:19.215Z,50.30
2023-10-10T12:58:53.060Z,51.09
2023-10-10T13:01:24.273Z,50.25
2023-10-10T13:03:52.009Z,48.68
2023-10-10T13:06:19.209Z,49.03
2023-10-10T13:08:49.634Z,49.54
2023-10-10T13:11:19.006Z,49.83
2023-10-10T13:13:52.688Z,48.96
2023-10-10T13:16:49.046Z,49.30
2023-10-10T13:19:19.555Z,49.32
2023-10-10T13:21:48.416Z,49.18
2023-10-10T13:24:16.108Z,48.07
2023-10-10T13:26:50.584Z,47.80
2023-10-10T13:29:18.484Z,48.37
2023-10-10T13:31:50.267Z,48.62
2023-10-10T13:34:23.188Z,47.72
2023-10-10T13:36:50.834Z,48.57
2023-10-10T13:39:34.265Z,48.42
2023-10-10T13:42:01.303Z,48.31
2023-10-10T13:44:28.058Z,47.67
2023-10-10T13:46:55.913Z,48.47
2023-10-10T13:49:22.804Z,48.38
2023-10-10T13:51:53.074Z,47.67
2023-10-10T13:54:20.577Z,48.05
2023-10-10T13:56:47.241Z,47.78
2023-10-10T13:59:15.851Z,47.86
2023-10-10T14:01:42.926Z,47.35
2023-10-10T14:04:28.820Z,47.61
2023-10-10T14:07:01.992Z,47.26
2023-10-10T14:09:48.189Z,47.81
2023-10-10T14:12:22.751Z,47.60
2023-10-10T14:14:49.590Z,48.02
2023-10-10T14:17:16.478Z,46.79
2023-10-10T14:19:43.226Z,46.49
2023-10-10T14:22:11.801Z,46.19
2023-10-10T14:24:40.198Z,46.09
2023-10-10T14:27:06.892Z,46.27
2023-10-10T14:29:42.546Z,45.29
2023-10-10T14:32:22.991Z,45.62
2023-10-10T14:34:54.098Z,44.25
2023-10-10T14:37:36.379Z,43.81
2023-10-10T14:40:10.617Z,43.77
2023-10-10T14:42:37.297Z,43.65
2023-10-10T14:45:07.769Z,43.35
2023-10-10T14:47:37.292Z,43.28
2023-10-10T14:50:09.085Z,43.10
2023-10-10T14:52:41.235Z,42.80
2023-10-10T14:55:24.460Z,42.53
2023-10-10T14:57:58.958Z,42.64
2023-10-10T15:00:29.268Z,42.53
2023-10-10T15:02:57.324Z,42.94
2023-10-10T15:05:25.577Z,42.75
2023-10-10T15:07:54.513Z,42.96
2023-10-10T15:10:27.984Z,42.28
2023-10-10T15:12:55.602Z,42.63
2023-10-10T15:15:23.810Z,43.05
2023-10-10T15:17:51.441Z,43.55
2023-10-10T15:20:18.366Z,42.59
2023-10-10T15:22:45.076Z,42.79
2023-10-10T15:25:12.138Z,43.63
2023-10-10T15:27:42.741Z,42.77
2023-10-10T15:30:10.173Z,42.66
2023-10-10T15:32:57.736Z,42.40
2023-10-10T15:35:24.989Z,42.43
2023-10-10T15:37:53.410Z,43.05
2023-10-10T15:40:23.502Z,43.34
2023-10-10T15:42:52.084Z,43.57
2023-10-10T15:45:22.038Z,44.00
2023-10-10T15:47:55.788Z,43.26
2023-10-10T15:50:23.490Z,44.02
2023-10-10T15:52:50.529Z,43.70
2023-10-10T15:55:24.842Z,43.72
2023-10-10T15:57:53.592Z,42.99
2023-10-10T16:00:22.608Z,43.66
2023-10-10T16:02:54.984Z,44.52
2023-10-10T16:05:22.822Z,44.42
2023-10-10T16:08:03.034Z,44.69
2023-10-10T16:10:37.591Z,45.14
2023-10-10T16:13:08.206Z,44.64
2023-10-10T16:15:34.904Z,44.83
2023-10-10T16:18:01.834Z,45.06
2023-10-10T16:20:28.684Z,45.08
2023-10-10T16:22:56.775Z,45.17
2023-10-10T16:25:25.223Z,45.33
2023-10-10T16:27:52.273Z,45.40
2023-10-10T16:30:18.936Z,45.52
2023-10-10T16:32:45.916Z,45.53
2023-10-10T16:35:12.734Z,45.46
2023-10-10T16:37:41.287Z,45.63
2023-10-10T16:40:10.734Z,46.19
2023-10-10T16:42:37.295Z,46.00
2023-10-10T16:45:04.678Z,45.98
2023-10-10T16:47:31.369Z,46.25
2023-10-10T16:49:57.957Z,46.41
2023-10-10T16:52:27.110Z,46.05
2023-10-10T16:54:54.722Z,46.69
2023-10-10T16:57:25.791Z,46.84
2023-10-10T16:59:53.842Z,47.06
2023-10-10T17:02:20.633Z,47.11
2023-10-10T17:04:47.393Z,47.45
2023-10-10T17:07:14.048Z,47.77
2023-10-10T17:09:41.151Z,47.91
2023-10-10T17:12:08.090Z,48.15
2023-10-10T17:14:38.407Z,47.85
2023-10-10T17:17:05.340Z,47.98
2023-10-10T17:19:32.785Z,48.60
2023-10-10T17:22:00.179Z,48.49
2023-10-10T17:24:27.693Z,49.04
2023-10-10T17:26:55.077Z,49.12
2023-10-10T17:29:24.568Z,49.83
2023-10-10T17:31:54.090Z,49.92
2023-10-10T17:34:23.012Z,49.36
2023-10-10T17:36:51.313Z,49.23
2023-10-10T17:39:18.230Z,49.48
2023-10-10T17:41:48.413Z,49.89
2023-10-10T17:44:17.945Z,50.27
2023-10-10T17:46:46.484Z,50.74
2023-10-10T17:49:13.144Z,50.75
2023-10-10T17:51:41.763Z,50.91
2023-10-10T17:54:08.381Z,51.56
2023-10-10T17:56:35.092Z,52.09
2023-10-10T17:59:01.727Z,52.66
2023-10-10T18:01:29.778Z,52.49
2023-10-10T18:03:57.050Z,53.74
2023-10-10T18:06:25.262Z,53.89
2023-10-10T18:08:56.401Z,53.90
2023-10-10T18:11:27.075Z,54.14
2023-10-10T18:13:53.991Z,54.50
2023-10-10T18:16:23.585Z,54.54
2023-10-10T18:18:52.972Z,54.89
2023-10-10T18:21:20.788Z,55.16
2023-10-10T18:23:47.713Z,55.08
2023-10-10T18:26:21.822Z,54.77
2023-10-10T18:28:50.704Z,54.92
2023-10-10T18:31:22.329Z,54.73
2023-10-10T18:33:49.088Z,54.55
2023-10-10T18:36:15.705Z,54.54
2023-10-10T18:38:42.326Z,54.68
2023-10-10T18:41:09.137Z,54.05
2023-10-10T18:43:35.937Z,54.74
2023-10-10T18:46:05.753Z,54.55
2023-10-10T18:48:34.507Z,54.28
2023-10-10T18:51:01.797Z,54.21
2023-10-10T18:53:28.517Z,54.43
2023-10-10T18:55:56.296Z,54.46
2023-10-10T18:58:27.225Z,53.44
2023-10-10T19:00:56.162Z,53.13
2023-10-10T19:03:23.677Z,53.46
2023-10-10T19:05:53.493Z,54.36
2023-10-10T19:08:21.268Z,54.78
2023-10-10T19:10:53.848Z,54.21
2023-10-10T19:13:20.959Z,54.23
2023-10-10T19:15:50.454Z,54.69
2023-10-10T19:18:17.416Z,55.45
2023-10-10T19:20:44.692Z,55.23
2023-10-10T19:23:11.439Z,54.75
2023-10-10T19:25:48.060Z,54.50
2023-10-10T19:28:17.130Z,53.95
2023-10-10T19:30:44.810Z,53.60
2023-10-10T19:33:13.582Z,53.64
2023-10-10T19:35:44.836Z,53.38
2023-10-10T19:38:12.492Z,53.05
2023-10-10T19:40:43.910Z,52.50
2023-10-10T19:43:11.340Z,52.67
2023-10-10T19:45:39.259Z,52.50
2023-10-10T19:48:09.132Z,52.08
2023-10-10T19:50:43.089Z,51.93
2023-10-10T19:53:11.224Z,52.03
2023-10-10T19:55:38.853Z,51.34
2023-10-10T19:58:14.135Z,51.49
2023-10-10T20:00:44.417Z,50.89
2023-10-10T20:03:14.422Z,51.32
2023-10-10T20:05:42.803Z,51.31
2023-10-10T20:08:11.358Z,50.68
2023-10-10T20:10:38.693Z,50.71
2023-10-10T20:13:06.756Z,50.62
2023-10-10T20:15:37.620Z,50.09
2023-10-10T20:18:12.368Z,49.77
2023-10-10T20:20:43.689Z,49.84
2023-10-10T20:23:11.239Z,49.29
2023-10-10T20:25:40.707Z,49.03
2023-10-10T20:28:09.059Z,49.24
2023-10-10T20:30:36.351Z,49.05
2023-10-10T20:33:06.106Z,48.09
2023-10-10T20:35:33.579Z,48.44
2023-10-10T20:38:06.757Z,48.00
2023-10-10T20:40:34.944Z,47.96
2023-10-10T20:43:05.858Z,47.92
2023-10-10T20:45:36.431Z,47.44
2023-10-10T20:48:09.725Z,47.83
2023-10-10T20:50:42.467Z,47.72
2023-10-10T20:53:09.461Z,47.47
2023-10-10T20:55:36.233Z,47.70
2023-10-10T20:58:03.104Z,47.48
2023-10-10T21:00:32.809Z,47.72
2023-10-10T21:03:06.814Z,47.28
2023-10-10T21:05:35.321Z,47.37
2023-10-10T21:08:03.334Z,47.72
2023-10-10T21:10:33.373Z,47.79
2023-10-10T21:13:00.176Z,47.44
2023-10-10T21:15:27.482Z,47.46
2023-10-10T21:17:59.905Z,47.58
2023-10-10T21:20:28.622Z,47.40
2023-10-10T21:23:00.009Z,47.67
2023-10-10T21:25:27.296Z,47.80
2023-10-10T21:27:57.458Z,47.85
2023-10-10T21:30:29.941Z,47.95
2023-10-10T21:32:57.801Z,48.10
2023-10-10T21:35:30.794Z,47.89
2023-10-10T21:37:59.755Z,48.00
2023-10-10T21:40:28.172Z,48.46
2023-10-10T21:42:56.668Z,48.19
2023-10-10T21:45:24.691Z,48.67
2023-10-10T21:47:55.231Z,48.30
2023-10-10T21:50:24.034Z,48.84
2023-10-10T21:52:51.509Z,48.82
2023-10-10T21:55:20.853Z,49.12
2023-10-10T21:57:56.519Z,48.68
2023-10-10T22:00:30.616Z,48.72
2023-10-10T22:03:01.836Z,49.07
2023-10-10T22:05:31.515Z,49.33
2023-10-10T22:07:59.001Z,49.52
2023-10-10T22:10:25.892Z,49.70
2023-10-10T22:12:55.107Z,49.97
2023-10-10T22:15:26.062Z,49.84
2023-10-10T22:17:57.319Z,50.10
2023-10-10T22:20:25.897Z,50.49
2023-10-10T22:22:54.601Z,50.17
2023-10-10T22:25:24.996Z,49.86
2023-10-10T22:27:53.094Z,49.93
2023-10-10T22:30:25.696Z,49.60
2023-10-10T22:32:54.721Z,49.59
2023-10-10T22:35:22.851Z,49.60
2023-10-10T22:37:51.869Z,49.55
2023-10-10T22:40:25.755Z,49.71
2023-10-10T22:42:57.945Z,50.10
2023-10-10T22:45:24.668Z,50.54
2023-10-10T22:47:55.376Z,50.52
2023-10-10T22:50:22.525Z,50.37
2023-10-10T22:52:54.558Z,50.56
2023-10-10T22:55:22.162Z,50.80
2023-10-10T22:57:52.049Z,51.03
2023-10-10T23:00:29.946Z,51.05
2023-10-10T23:03:00.010Z,51.13
2023-10-10T23:05:28.417Z,51.06
2023-10-10T23:07:58.347Z,51.22
2023-10-10T23:10:25.269Z,51.54
2023-10-10T23:12:52.859Z,51.43
2023-10-10T23:15:27.388Z,51.73
2023-10-10T23:17:59.042Z,51.44
2023-10-10T23:20:30.065Z,51.47
2023-10-10T23:22:58.823Z,52.10
2023-10-10T23:25:26.959Z,52.00
2023-10-10T23:27:57.064Z,52.15
2023-10-10T23:30:28.257Z,52.60
2023-10-10T23:32:55.771Z,52.78
2023-10-10T23:35:22.822Z,52.97
2023-10-10T23:37:53.702Z,52.44
2023-10-10T23:40:22.758Z,52.57
2023-10-10T23:42:54.172Z,53.30
2023-10-10T23:45:23.693Z,53.35
2023-10-10T23:47:58.001Z,53.61
2023-10-10T23:50:27.118Z,53.75
2023-10-10T23:52:55.979Z,53.54
2023-10-10T23:55:26.363Z,53.47
2023-10-10T23:57:59.094Z,53.78
